עמוד ראשי
תמונות לווין תחזית 15-יוםאקליםתחזית ים סופות טרופיות ברק שדות תעופהשאלות נפוצות עלון אודות
מזג אוויר : אירופה אפריקה אמריקה הצפונית אמריקה הדרומית אסיה אוסטרליה-אוקיאניה אחר
שפות איש קשר

שטוטגרט, גרמניה

Echterdingen

קו רוחב: 48-41N, קו אורך: 009-13E, גובה: 396 m


METAR: EDDS 231120Z 08002KT CAVOK 10/07 Q1021 NOSIG
TAF: EDDS 231100Z 2312/2412 VRB03KT CAVOK BECMG 2321/2324 3500 BR BECMG 2400/2403 0300 FG BKN002 BECMG 2406/2409 CAVOK

זמן: 12:50 (11:50 UTC)

תצפית מזג אוויר נוכחית

הדו"ח נערך לפני 30 דקות, בשעה 11:20 UTC
רוח 2 קשר מכיוון מזרח
טמפרטורת 10°C
לחות 82%
לחץ 1021 hPa
ראות 10 קילומטר או יותר
ללא עננים שבסיסם נמוך מ 1500 רגל או קומולונימבוס

שינוי יחידות

תחזית

הדו"ח נערך לפני 50 דקות, בשעה 11:00 UTC
תחזית בתוקף מ 23 ב 12 UTC עד 24 ב 12 UTC
רוח 3 קשר רוח עם כיוונים משתנים
ראות 10 קילומטר או יותר
ללא עננים שבסיסם נמוך מ 1500 רגל או קומולונימבוס
יעשה מ
23 ב 21 UTC עד 23 ב 24 UTC
ראות: 3500 m
אד
יעשה מ
24 ב 00 UTC עד 24 ב 03 UTC
ראות: 0300 m
עננים בינוניים בגובה 200 רגל
ערפל
יעשה מ
24 ב 06 UTC עד 24 ב 09 UTC
ראות 10 קילומטר או יותר
ללא עננים שבסיסם נמוך מ 1500 רגל או קומולונימבוס
המידע באתר זה מותנה של תניית פטור
מזג אוויר : אירופה אפריקה אמריקה הצפונית אמריקה הדרומית אסיה אוסטרליה-אוקיאניה אחר
תמונות לווין תחזית 15-יוםאקליםתחזית ים סופות טרופיות ברק שדות תעופהשאלות נפוצות שפות איש קשר עלון אודות